sensor_id;sensor_type;location;lat;lon;timestamp;pressure;altitude;pressure_sealevel;temperature;humidity
46448;BME280;32145;50.390;30.778;2023-11-22T00:00:40;100152.03;;;-1.53;75.57
46448;BME280;32145;50.390;30.778;2023-11-22T00:03:34;100153.00;;;-1.54;75.68
46448;BME280;32145;50.390;30.778;2023-11-22T00:06:28;100158.34;;;-1.54;76.08
46448;BME280;32145;50.390;30.778;2023-11-22T00:09:22;100154.81;;;-1.54;75.62
46448;BME280;32145;50.390;30.778;2023-11-22T00:12:16;100151.63;;;-1.58;75.68
46448;BME280;32145;50.390;30.778;2023-11-22T00:15:11;100153.59;;;-1.60;76.02
46448;BME280;32145;50.390;30.778;2023-11-22T00:18:06;100158.91;;;-1.60;76.16
46448;BME280;32145;50.390;30.778;2023-11-22T00:21:01;100151.06;;;-1.62;76.15
46448;BME280;32145;50.390;30.778;2023-11-22T00:23:55;100150.25;;;-1.62;75.65
46448;BME280;32145;50.390;30.778;2023-11-22T00:26:49;100150.25;;;-1.62;75.73
46448;BME280;32145;50.390;30.778;2023-11-22T00:29:43;100151.22;;;-1.63;76.45
46448;BME280;32145;50.390;30.778;2023-11-22T00:32:37;100154.59;;;-1.61;76.14
46448;BME280;32145;50.390;30.778;2023-11-22T00:35:33;100148.28;;;-1.60;75.85
46448;BME280;32145;50.390;30.778;2023-11-22T00:38:30;100146.59;;;-1.61;76.79
46448;BME280;32145;50.390;30.778;2023-11-22T00:41:30;100141.97;;;-1.59;76.53
46448;BME280;32145;50.390;30.778;2023-11-22T00:44:26;100142.94;;;-1.60;76.51
46448;BME280;32145;50.390;30.778;2023-11-22T00:47:22;100143.94;;;-1.61;76.24
46448;BME280;32145;50.390;30.778;2023-11-22T00:50:18;100138.47;;;-1.60;76.08
46448;BME280;32145;50.390;30.778;2023-11-22T00:53:16;100137.63;;;-1.60;76.27
46448;BME280;32145;50.390;30.778;2023-11-22T00:56:13;100138.47;;;-1.60;76.16
46448;BME280;32145;50.390;30.778;2023-11-22T00:59:09;100141.28;;;-1.61;76.51
46448;BME280;32145;50.390;30.778;2023-11-22T01:02:05;100122.69;;;-1.61;76.32
46448;BME280;32145;50.390;30.778;2023-11-22T01:05:02;100130.94;;;-1.64;76.30
46448;BME280;32145;50.390;30.778;2023-11-22T01:07:58;100130.41;;;-1.68;76.33
46448;BME280;32145;50.390;30.778;2023-11-22T01:10:55;100131.38;;;-1.69;76.17
46448;BME280;32145;50.390;30.778;2023-11-22T01:13:50;100136.88;;;-1.71;76.42
46448;BME280;32145;50.390;30.778;2023-11-22T01:16:44;100132.50;;;-1.72;76.83
46448;BME280;32145;50.390;30.778;2023-11-22T01:19:38;100128.72;;;-1.69;76.76
46448;BME280;32145;50.390;30.778;2023-11-22T01:22:32;100120.59;;;-1.67;76.52
46448;BME280;32145;50.390;30.778;2023-11-22T01:25:28;100118.94;;;-1.69;76.87
46448;BME280;32145;50.390;30.778;2023-11-22T01:28:26;100117.78;;;-1.66;76.83
46448;BME280;32145;50.390;30.778;2023-11-22T01:31:21;100125.75;;;-1.66;76.82
46448;BME280;32145;50.390;30.778;2023-11-22T01:34:15;100135.44;;;-1.65;77.40
46448;BME280;32145;50.390;30.778;2023-11-22T01:37:09;100130.94;;;-1.64;77.29
46448;BME280;32145;50.390;30.778;2023-11-22T01:40:04;100143.56;;;-1.66;76.70
46448;BME280;32145;50.390;30.778;2023-11-22T01:43:00;100141.88;;;-1.67;77.01
46448;BME280;32145;50.390;30.778;2023-11-22T01:45:58;100137.25;;;-1.65;77.05
46448;BME280;32145;50.390;30.778;2023-11-22T01:48:54;100125.91;;;-1.67;77.35
46448;BME280;32145;50.390;30.778;2023-11-22T01:51:51;100140.19;;;-1.69;77.70
46448;BME280;32145;50.390;30.778;2023-11-22T01:54:47;100145.50;;;-1.69;77.35
46448;BME280;32145;50.390;30.778;2023-11-22T01:57:44;100139.34;;;-1.69;77.49
46448;BME280;32145;50.390;30.778;2023-11-22T02:00:45;100132.91;;;-1.66;76.81
46448;BME280;32145;50.390;30.778;2023-11-22T02:03:45;100130.41;;;-1.68;77.13
46448;BME280;32145;50.390;30.778;2023-11-22T02:06:41;100134.03;;;-1.69;76.99
46448;BME280;32145;50.390;30.778;2023-11-22T02:09:38;100135.88;;;-1.70;76.99
46448;BME280;32145;50.390;30.778;2023-11-22T02:12:34;100133.22;;;-1.70;77.24
46448;BME280;32145;50.390;30.778;2023-11-22T02:15:31;100136.88;;;-1.71;77.51
46448;BME280;32145;50.390;30.778;2023-11-22T02:18:27;100136.00;;;-1.71;77.72
46448;BME280;32145;50.390;30.778;2023-11-22T02:21:25;100138.81;;;-1.73;77.47
46448;BME280;32145;50.390;30.778;2023-11-22T02:24:23;100130.84;;;-1.73;77.87
46448;BME280;32145;50.390;30.778;2023-11-22T02:27:19;100137.16;;;-1.74;77.64
46448;BME280;32145;50.390;30.778;2023-11-22T02:30:15;100145.13;;;-1.74;77.62
46448;BME280;32145;50.390;30.778;2023-11-22T02:33:09;100148.78;;;-1.75;77.52
46448;BME280;32145;50.390;30.778;2023-11-22T02:36:04;100158.41;;;-1.74;77.78
46448;BME280;32145;50.390;30.778;2023-11-22T02:38:59;100151.44;;;-1.75;78.17
46448;BME280;32145;50.390;30.778;2023-11-22T02:41:54;100148.59;;;-1.73;77.96
46448;BME280;32145;50.390;30.778;2023-11-22T02:44:51;100161.75;;;-1.72;78.03
46448;BME280;32145;50.390;30.778;2023-11-22T02:47:47;100153.50;;;-1.69;78.06
46448;BME280;32145;50.390;30.778;2023-11-22T02:50:43;100159.50;;;-1.66;77.76
46448;BME280;32145;50.390;30.778;2023-11-22T02:53:39;100152.63;;;-1.69;77.69
46448;BME280;32145;50.390;30.778;2023-11-22T02:56:35;100155.28;;;-1.69;78.14
46448;BME280;32145;50.390;30.778;2023-11-22T02:59:31;100152.81;;;-1.71;78.12
46448;BME280;32145;50.390;30.778;2023-11-22T03:02:25;100146.78;;;-1.73;78.00
46448;BME280;32145;50.390;30.778;2023-11-22T03:05:20;100139.66;;;-1.72;78.00
46448;BME280;32145;50.390;30.778;2023-11-22T03:08:14;100139.66;;;-1.72;77.98
46448;BME280;32145;50.390;30.778;2023-11-22T03:11:11;100151.13;;;-1.72;78.07
46448;BME280;32145;50.390;30.778;2023-11-22T03:14:07;100136.00;;;-1.71;78.18
46448;BME280;32145;50.390;30.778;2023-11-22T03:17:05;100142.19;;;-1.71;78.50
46448;BME280;32145;50.390;30.778;2023-11-22T03:20:02;100141.47;;;-1.73;78.34
46448;BME280;32145;50.390;30.778;2023-11-22T03:22:58;100146.94;;;-1.74;77.92
46448;BME280;32145;50.390;30.778;2023-11-22T03:25:55;100144.41;;;-1.76;77.88
46448;BME280;32145;50.390;30.778;2023-11-22T03:28:51;100153.38;;;-1.77;77.47
46448;BME280;32145;50.390;30.778;2023-11-22T03:31:47;100147.34;;;-1.79;77.92
46448;BME280;32145;50.390;30.778;2023-11-22T03:34:45;100151.72;;;-1.78;78.23
46448;BME280;32145;50.390;30.778;2023-11-22T03:37:41;100144.69;;;-1.79;78.30
46448;BME280;32145;50.390;30.778;2023-11-22T03:40:37;100157.03;;;-1.78;78.09
46448;BME280;32145;50.390;30.778;2023-11-22T03:43:34;100157.03;;;-1.78;78.10
46448;BME280;32145;50.390;30.778;2023-11-22T03:46:30;100161.50;;;-1.78;78.44
46448;BME280;32145;50.390;30.778;2023-11-22T03:49:26;100163.16;;;-1.77;78.30
46448;BME280;32145;50.390;30.778;2023-11-22T03:52:22;100168.47;;;-1.77;78.50
46448;BME280;32145;50.390;30.778;2023-11-22T03:55:16;100171.28;;;-1.79;78.19
46448;BME280;32145;50.390;30.778;2023-11-22T03:58:10;100171.28;;;-1.79;78.64
46448;BME280;32145;50.390;30.778;2023-11-22T04:01:05;100174.94;;;-1.80;78.52
46448;BME280;32145;50.390;30.778;2023-11-22T04:03:59;100182.91;;;-1.80;78.35
46448;BME280;32145;50.390;30.778;2023-11-22T04:06:54;100178.59;;;-1.81;78.46
46448;BME280;32145;50.390;30.778;2023-11-22T04:09:51;100178.59;;;-1.81;78.23
46448;BME280;32145;50.390;30.778;2023-11-22T04:12:49;100170.22;;;-1.86;78.50
46448;BME280;32145;50.390;30.778;2023-11-22T04:15:45;100170.22;;;-1.86;78.67
46448;BME280;32145;50.390;30.778;2023-11-22T04:18:42;100178.03;;;-1.85;78.40
46448;BME280;32145;50.390;30.778;2023-11-22T04:21:38;100191.47;;;-1.86;78.62
46448;BME280;32145;50.390;30.778;2023-11-22T04:24:34;100179.16;;;-1.87;78.19
46448;BME280;32145;50.390;30.778;2023-11-22T04:27:32;100193.44;;;-1.88;78.44
46448;BME280;32145;50.390;30.778;2023-11-22T04:30:28;100186.44;;;-1.89;78.67
46448;BME280;32145;50.390;30.778;2023-11-22T04:33:25;100198.88;;;-1.90;78.89
46448;BME280;32145;50.390;30.778;2023-11-22T04:36:21;100191.06;;;-1.91;78.95
46448;BME280;32145;50.390;30.778;2023-11-22T04:39:17;100190.09;;;-1.90;78.27
46448;BME280;32145;50.390;30.778;2023-11-22T04:42:14;100192.75;;;-1.90;78.64
46448;BME280;32145;50.390;30.778;2023-11-22T04:45:12;100194.56;;;-1.91;79.05
46448;BME280;32145;50.390;30.778;2023-11-22T04:48:08;100199.03;;;-1.91;79.17
46448;BME280;32145;50.390;30.778;2023-11-22T04:51:04;100199.03;;;-1.91;78.98
46448;BME280;32145;50.390;30.778;2023-11-22T04:54:00;100201.81;;;-1.93;79.24
46448;BME280;32145;50.390;30.778;2023-11-22T04:56:57;100209.66;;;-1.91;78.70
46448;BME280;32145;50.390;30.778;2023-11-22T04:59:53;100201.00;;;-1.93;78.93
46448;BME280;32145;50.390;30.778;2023-11-22T05:02:50;100207.97;;;-1.92;79.00
46448;BME280;32145;50.390;30.778;2023-11-22T05:05:46;100215.28;;;-1.95;79.57
46448;BME280;32145;50.390;30.778;2023-11-22T05:08:43;100215.28;;;-1.95;78.78
46448;BME280;32145;50.390;30.778;2023-11-22T05:11:39;100209.97;;;-1.95;79.46
46448;BME280;32145;50.390;30.778;2023-11-22T05:14:35;100219.59;;;-1.93;79.42
46448;BME280;32145;50.390;30.778;2023-11-22T05:17:31;100220.59;;;-1.95;79.35
46448;BME280;32145;50.390;30.778;2023-11-22T05:20:29;100231.91;;;-1.92;78.95
46448;BME280;32145;50.390;30.778;2023-11-22T05:23:25;100234.69;;;-1.94;79.20
46448;BME280;32145;50.390;30.778;2023-11-22T05:26:22;100232.19;;;-1.96;79.23
46448;BME280;32145;50.390;30.778;2023-11-22T05:29:18;100227.84;;;-1.97;79.33
46448;BME280;32145;50.390;30.778;2023-11-22T05:32:15;100231.50;;;-1.98;79.15
46448;BME280;32145;50.390;30.778;2023-11-22T05:35:09;100243.81;;;-1.97;79.24
46448;BME280;32145;50.390;30.778;2023-11-22T05:38:04;100233.16;;;-1.97;79.44
46448;BME280;32145;50.390;30.778;2023-11-22T05:40:58;100244.50;;;-1.95;79.31
46448;BME280;32145;50.390;30.778;2023-11-22T05:43:53;100253.44;;;-1.96;79.79
46448;BME280;32145;50.390;30.778;2023-11-22T05:46:47;100252.47;;;-1.95;78.97
46448;BME280;32145;50.390;30.778;2023-11-22T05:49:42;100248.97;;;-1.95;79.50
46448;BME280;32145;50.390;30.778;2023-11-22T05:52:36;100259.59;;;-1.95;79.24
46448;BME280;32145;50.390;30.778;2023-11-22T05:55:32;100265.19;;;-1.98;79.69
46448;BME280;32145;50.390;30.778;2023-11-22T05:58:26;100257.22;;;-1.98;79.36
46448;BME280;32145;50.390;30.778;2023-11-22T06:01:21;100274.84;;;-1.97;79.48
46448;BME280;32145;50.390;30.778;2023-11-22T06:04:15;100279.06;;;-1.95;79.46
46448;BME280;32145;50.390;30.778;2023-11-22T06:07:11;100283.66;;;-1.97;78.90
46448;BME280;32145;50.390;30.778;2023-11-22T06:10:08;100284.38;;;-1.95;79.12
46448;BME280;32145;50.390;30.778;2023-11-22T06:13:05;100279.59;;;-1.91;79.21
46448;BME280;32145;50.390;30.778;2023-11-22T06:16:02;100283.94;;;-1.90;79.53
46448;BME280;32145;50.390;30.778;2023-11-22T06:18:58;100287.44;;;-1.89;79.08
46448;BME280;32145;50.390;30.778;2023-11-22T06:21:54;100291.91;;;-1.90;79.54
46448;BME280;32145;50.390;30.778;2023-11-22T06:24:51;100301.53;;;-1.89;79.26
46448;BME280;32145;50.390;30.778;2023-11-22T06:27:47;100307.72;;;-1.88;79.05
46448;BME280;32145;50.390;30.778;2023-11-22T06:30:43;100304.19;;;-1.89;79.01
46448;BME280;32145;50.390;30.778;2023-11-22T06:33:37;100309.38;;;-1.87;78.77
46448;BME280;32145;50.390;30.778;2023-11-22T06:36:31;100310.94;;;-1.85;79.38
46448;BME280;32145;50.390;30.778;2023-11-22T06:39:26;100310.78;;;-1.83;78.93
46448;BME280;32145;50.390;30.778;2023-11-22T06:42:20;100318.91;;;-1.85;78.71
46448;BME280;32145;50.390;30.778;2023-11-22T06:45:14;100311.34;;;-1.89;78.16
46448;BME280;32145;50.390;30.778;2023-11-22T06:48:10;100325.06;;;-1.94;78.75
46448;BME280;32145;50.390;30.778;2023-11-22T06:51:04;100325.50;;;-1.99;78.15
46448;BME280;32145;50.390;30.778;2023-11-22T06:54:01;100328.69;;;-2.05;78.32
46448;BME280;32145;50.390;30.778;2023-11-22T06:56:57;100329.81;;;-2.08;78.69
46448;BME280;32145;50.390;30.778;2023-11-22T06:59:53;100338.91;;;-2.10;78.87
46448;BME280;32145;50.390;30.778;2023-11-22T07:02:49;100341.97;;;-2.05;78.73
46448;BME280;32145;50.390;30.778;2023-11-22T07:05:47;100321.13;;;-2.00;78.58
46448;BME280;32145;50.390;30.778;2023-11-22T07:08:44;100328.16;;;-1.99;78.60
46448;BME280;32145;50.390;30.778;2023-11-22T07:11:40;100342.66;;;-1.93;78.58
46448;BME280;32145;50.390;30.778;2023-11-22T07:14:37;100333.31;;;-1.87;78.38
46448;BME280;32145;50.390;30.778;2023-11-22T07:17:31;100329.09;;;-1.80;78.43
46448;BME280;32145;50.390;30.778;2023-11-22T07:20:25;100341.13;;;-1.76;77.70
46448;BME280;32145;50.390;30.778;2023-11-22T07:23:21;100348.28;;;-1.66;78.11
46448;BME280;32145;50.390;30.778;2023-11-22T07:26:15;100346.28;;;-1.64;77.98
46448;BME280;32145;50.390;30.778;2023-11-22T07:29:11;100359.59;;;-1.64;77.38
46448;BME280;32145;50.390;30.778;2023-11-22T07:32:08;100362.13;;;-1.73;77.76
46448;BME280;32145;50.390;30.778;2023-11-22T07:35:02;100364.38;;;-1.78;77.13
46448;BME280;32145;50.390;30.778;2023-11-22T07:37:58;100371.09;;;-1.84;77.87
46448;BME280;32145;50.390;30.778;2023-11-22T07:40:54;100366.03;;;-1.97;77.34
46448;BME280;32145;50.390;30.778;2023-11-22T07:43:48;100373.88;;;-2.05;77.10
46448;BME280;32145;50.390;30.778;2023-11-22T07:46:42;100367.44;;;-2.12;77.01
46448;BME280;32145;50.390;30.778;2023-11-22T07:49:38;100365.16;;;-2.17;77.41
46448;BME280;32145;50.390;30.778;2023-11-22T07:52:33;100371.06;;;-2.23;77.83
46448;BME280;32145;50.390;30.778;2023-11-22T07:55:27;100369.53;;;-2.26;77.68
46448;BME280;32145;50.390;30.778;2023-11-22T07:58:23;100380.81;;;-2.24;77.69
46448;BME280;32145;50.390;30.778;2023-11-22T08:01:17;100377.47;;;-2.26;77.58
46448;BME280;32145;50.390;30.778;2023-11-22T08:04:11;100380.97;;;-2.25;77.66
46448;BME280;32145;50.390;30.778;2023-11-22T08:07:05;100379.56;;;-2.29;77.37
46448;BME280;32145;50.390;30.778;2023-11-22T08:10:02;100389.75;;;-2.35;77.48
46448;BME280;32145;50.390;30.778;2023-11-22T08:12:58;100397.59;;;-2.33;77.36
46448;BME280;32145;50.390;30.778;2023-11-22T08:15:54;100389.47;;;-2.41;77.46
46448;BME280;32145;50.390;30.778;2023-11-22T08:18:48;100382.31;;;-2.51;76.96
46448;BME280;32145;50.390;30.778;2023-11-22T08:21:42;100394.03;;;-2.53;76.97
46448;BME280;32145;50.390;30.778;2023-11-22T08:24:36;100394.16;;;-2.55;77.38
46448;BME280;32145;50.390;30.778;2023-11-22T08:27:31;100398.41;;;-2.52;77.27
46448;BME280;32145;50.390;30.778;2023-11-22T08:30:25;100400.75;;;-2.49;77.34
46448;BME280;32145;50.390;30.778;2023-11-22T08:33:23;100397.97;;;-2.48;76.90
46448;BME280;32145;50.390;30.778;2023-11-22T08:36:19;100394.50;;;-2.48;77.43
46448;BME280;32145;50.390;30.778;2023-11-22T08:39:15;100391.84;;;-2.48;77.25
46448;BME280;32145;50.390;30.778;2023-11-22T08:42:11;100397.28;;;-2.50;77.23
46448;BME280;32145;50.390;30.778;2023-11-22T08:45:08;100400.88;;;-2.51;77.02
46448;BME280;32145;50.390;30.778;2023-11-22T08:48:03;100410.22;;;-2.56;76.91
46448;BME280;32145;50.390;30.778;2023-11-22T08:51:00;100416.53;;;-2.57;76.90
46448;BME280;32145;50.390;30.778;2023-11-22T08:53:54;100409.25;;;-2.65;76.38
46448;BME280;32145;50.390;30.778;2023-11-22T08:56:49;100404.06;;;-2.67;76.46
46448;BME280;32145;50.390;30.778;2023-11-22T08:59:43;100399.44;;;-2.65;76.47
46448;BME280;32145;50.390;30.778;2023-11-22T09:02:37;100407.56;;;-2.66;76.92
46448;BME280;32145;50.390;30.778;2023-11-22T09:05:32;100403.22;;;-2.67;76.24
46448;BME280;32145;50.390;30.778;2023-11-22T09:08:28;100399.16;;;-2.72;76.38
46448;BME280;32145;50.390;30.778;2023-11-22T09:11:24;100400.13;;;-2.73;76.72
46448;BME280;32145;50.390;30.778;2023-11-22T09:14:21;100399.16;;;-2.72;76.14
46448;BME280;32145;50.390;30.778;2023-11-22T09:17:17;100393.41;;;-2.77;76.37
46448;BME280;32145;50.390;30.778;2023-11-22T09:20:13;100396.56;;;-2.83;76.58
46448;BME280;32145;50.390;30.778;2023-11-22T09:23:09;100398.53;;;-2.85;76.05
46448;BME280;32145;50.390;30.778;2023-11-22T09:26:07;100395.16;;;-2.87;76.55
46448;BME280;32145;50.390;30.778;2023-11-22T09:29:03;100394.91;;;-2.84;76.28
46448;BME280;32145;50.390;30.778;2023-11-22T09:31:53;100406.09;;;-2.80;76.75
46448;BME280;32145;50.390;30.778;2023-11-22T09:34:47;100402.75;;;-2.82;76.16
46448;BME280;32145;50.390;30.778;2023-11-22T09:37:42;100401.19;;;-2.85;76.42
46448;BME280;32145;50.390;30.778;2023-11-22T09:40:40;100416.41;;;-2.87;76.59
46448;BME280;32145;50.390;30.778;2023-11-22T09:43:38;100415.56;;;-2.88;76.64
46448;BME280;32145;50.390;30.778;2023-11-22T09:46:34;100412.44;;;-2.93;76.59
46448;BME280;32145;50.390;30.778;2023-11-22T09:49:31;100410.78;;;-2.94;76.60
46448;BME280;32145;50.390;30.778;2023-11-22T09:52:31;100410.78;;;-2.94;76.16
46448;BME280;32145;50.390;30.778;2023-11-22T09:55:28;100413.75;;;-2.87;76.67
46448;BME280;32145;50.390;30.778;2023-11-22T09:58:23;100415.41;;;-2.96;76.13
46448;BME280;32145;50.390;30.778;2023-11-22T10:01:18;100415.53;;;-2.98;76.17
46448;BME280;32145;50.390;30.778;2023-11-22T10:04:13;100416.22;;;-2.95;76.57
46448;BME280;32145;50.390;30.778;2023-11-22T10:07:07;100432.84;;;-2.93;76.24
46448;BME280;32145;50.390;30.778;2023-11-22T10:10:04;100422.06;;;-3.02;76.54
46448;BME280;32145;50.390;30.778;2023-11-22T10:13:00;100432.69;;;-3.02;76.39
46448;BME280;32145;50.390;30.778;2023-11-22T10:16:08;100422.75;;;-3.00;76.31
46448;BME280;32145;50.390;30.778;2023-11-22T10:19:06;100428.91;;;-2.99;76.50
46448;BME280;32145;50.390;30.778;2023-11-22T10:22:04;100431.09;;;-3.04;76.24
46448;BME280;32145;50.390;30.778;2023-11-22T10:25:00;100437.38;;;-3.05;76.49
46448;BME280;32145;50.390;30.778;2023-11-22T10:27:56;100438.25;;;-3.05;75.74
46448;BME280;32145;50.390;30.778;2023-11-22T10:30:52;100442.56;;;-3.04;76.06
46448;BME280;32145;50.390;30.778;2023-11-22T10:33:49;100449.84;;;-3.06;76.03
46448;BME280;32145;50.390;30.778;2023-11-22T10:36:45;100445.34;;;-3.05;76.17
46448;BME280;32145;50.390;30.778;2023-11-22T10:39:40;100440.75;;;-3.03;76.14
46448;BME280;32145;50.390;30.778;2023-11-22T10:42:34;100442.69;;;-3.05;76.35
46448;BME280;32145;50.390;30.778;2023-11-22T10:45:30;100445.09;;;-3.02;75.75
46448;BME280;32145;50.390;30.778;2023-11-22T10:48:24;100450.97;;;-2.99;76.16
46448;BME280;32145;50.390;30.778;2023-11-22T10:51:19;100439.41;;;-2.98;75.98
46448;BME280;32145;50.390;30.778;2023-11-22T10:54:16;100442.75;;;-2.95;76.53
46448;BME280;32145;50.390;30.778;2023-11-22T10:57:12;100448.66;;;-2.92;76.32
46448;BME280;32145;50.390;30.778;2023-11-22T11:00:08;100445.16;;;-2.92;76.05
46448;BME280;32145;50.390;30.778;2023-11-22T11:03:08;100448.06;;;-2.95;76.54
46448;BME280;32145;50.390;30.778;2023-11-22T11:06:04;100445.66;;;-2.99;76.53
46448;BME280;32145;50.390;30.778;2023-11-22T11:09:03;100452.66;;;-2.98;76.12
46448;BME280;32145;50.390;30.778;2023-11-22T11:12:01;100450.72;;;-2.95;75.95
46448;BME280;32145;50.390;30.778;2023-11-22T11:14:57;100459.41;;;-2.93;76.57
46448;BME280;32145;50.390;30.778;2023-11-22T11:17:54;100461.06;;;-2.92;76.14
46448;BME280;32145;50.390;30.778;2023-11-22T11:20:52;100463.00;;;-2.94;76.04
46448;BME280;32145;50.390;30.778;2023-11-22T11:23:51;100468.59;;;-2.98;75.75
46448;BME280;32145;50.390;30.778;2023-11-22T11:26:47;100457.91;;;-3.07;75.80
46448;BME280;32145;50.390;30.778;2023-11-22T11:29:43;100467.69;;;-3.08;75.80
46448;BME280;32145;50.390;30.778;2023-11-22T11:32:38;100455.38;;;-3.09;75.60
46448;BME280;32145;50.390;30.778;2023-11-22T11:35:37;100449.84;;;-3.06;75.64
46448;BME280;32145;50.390;30.778;2023-11-22T11:38:35;100453.84;;;-3.12;75.61
46448;BME280;32145;50.390;30.778;2023-11-22T11:41:32;100457.56;;;-3.14;75.37
46448;BME280;32145;50.390;30.778;2023-11-22T11:44:29;100464.09;;;-3.18;75.67
46448;BME280;32145;50.390;30.778;2023-11-22T11:47:14;100461.72;;;-3.21;75.42
46448;BME280;32145;50.390;30.778;2023-11-22T11:49:59;100467.84;;;-3.21;75.33
46448;BME280;32145;50.390;30.778;2023-11-22T11:52:55;100468.72;;;-3.20;75.58
46448;BME280;32145;50.390;30.778;2023-11-22T11:55:46;100470.38;;;-3.19;75.28
46448;BME280;32145;50.390;30.778;2023-11-22T11:58:30;100474.00;;;-3.20;75.44
46448;BME280;32145;50.390;30.778;2023-11-22T12:01:28;100478.59;;;-3.22;75.24
46448;BME280;32145;50.390;30.778;2023-11-22T12:04:16;100465.63;;;-3.26;74.92
46448;BME280;32145;50.390;30.778;2023-11-22T12:07:11;100464.03;;;-3.28;74.99
46448;BME280;32145;50.390;30.778;2023-11-22T12:09:55;100463.09;;;-3.27;74.72
46448;BME280;32145;50.390;30.778;2023-11-22T12:12:52;100468.63;;;-3.30;74.67
46448;BME280;32145;50.390;30.778;2023-11-22T12:15:42;100463.91;;;-3.27;74.59
46448;BME280;32145;50.390;30.778;2023-11-22T12:18:39;100475.38;;;-3.26;74.78
46448;BME280;32145;50.390;30.778;2023-11-22T12:21:35;100473.56;;;-3.26;74.93
46448;BME280;32145;50.390;30.778;2023-11-22T12:24:30;100480.78;;;-3.28;74.80
46448;BME280;32145;50.390;30.778;2023-11-22T12:27:14;100476.22;;;-3.26;75.11
46448;BME280;32145;50.390;30.778;2023-11-22T12:30:09;100486.56;;;-3.22;75.24
46448;BME280;32145;50.390;30.778;2023-11-22T12:32:53;100483.78;;;-3.21;74.89
46448;BME280;32145;50.390;30.778;2023-11-22T12:35:38;100484.63;;;-3.20;74.91
46448;BME280;32145;50.390;30.778;2023-11-22T12:38:23;100482.66;;;-3.18;74.82
46448;BME280;32145;50.390;30.778;2023-11-22T12:41:08;100477.38;;;-3.18;75.25
46448;BME280;32145;50.390;30.778;2023-11-22T12:44:03;100478.09;;;-3.16;75.09
46448;BME280;32145;50.390;30.778;2023-11-22T12:46:48;100487.16;;;-3.19;74.57
46448;BME280;32145;50.390;30.778;2023-11-22T12:49:43;100495.22;;;-3.20;74.80
46448;BME280;32145;50.390;30.778;2023-11-22T12:52:38;100502.59;;;-3.24;75.14
46448;BME280;32145;50.390;30.778;2023-11-22T12:55:34;100517.22;;;-3.30;74.43
46448;BME280;32145;50.390;30.778;2023-11-22T12:58:19;100515.75;;;-3.34;75.06
46448;BME280;32145;50.390;30.778;2023-11-22T13:01:04;100522.03;;;-3.35;74.64
46448;BME280;32145;50.390;30.778;2023-11-22T13:03:48;100531.22;;;-3.39;74.82
46448;BME280;32145;50.390;30.778;2023-11-22T13:06:32;100527.13;;;-3.43;74.77
46448;BME280;32145;50.390;30.778;2023-11-22T13:09:26;100530.53;;;-3.41;74.54
46448;BME280;32145;50.390;30.778;2023-11-22T13:12:22;100547.38;;;-3.42;74.55
46448;BME280;32145;50.390;30.778;2023-11-22T13:15:16;100545.94;;;-3.46;74.12
46448;BME280;32145;50.390;30.778;2023-11-22T13:18:10;100548.13;;;-3.52;74.36
46448;BME280;32145;50.390;30.778;2023-11-22T13:21:00;100539.34;;;-3.52;74.89
46448;BME280;32145;50.390;30.778;2023-11-22T13:23:54;100544.63;;;-3.52;74.82
46448;BME280;32145;50.390;30.778;2023-11-22T13:26:38;100554.53;;;-3.54;74.14
46448;BME280;32145;50.390;30.778;2023-11-22T13:29:24;100560.81;;;-3.55;74.66
46448;BME280;32145;50.390;30.778;2023-11-22T13:32:08;100559.97;;;-3.56;74.68
46448;BME280;32145;50.390;30.778;2023-11-22T13:34:52;100569.72;;;-3.56;74.78
46448;BME280;32145;50.390;30.778;2023-11-22T13:37:49;100573.34;;;-3.57;74.72
46448;BME280;32145;50.390;30.778;2023-11-22T13:40:40;100564.91;;;-3.63;74.88
46448;BME280;32145;50.390;30.778;2023-11-22T13:43:34;100569.38;;;-3.63;74.58
46448;BME280;32145;50.390;30.778;2023-11-22T13:46:26;100572.75;;;-3.61;74.79
46448;BME280;32145;50.390;30.778;2023-11-22T13:49:24;100578.06;;;-3.61;74.87
46448;BME280;32145;50.390;30.778;2023-11-22T13:52:14;100584.44;;;-3.64;74.53
46448;BME280;32145;50.390;30.778;2023-11-22T13:55:08;100575.75;;;-3.66;74.99
46448;BME280;32145;50.390;30.778;2023-11-22T13:58:00;100581.91;;;-3.65;74.82
46448;BME280;32145;50.390;30.778;2023-11-22T14:00:44;100574.91;;;-3.66;75.15
46448;BME280;32145;50.390;30.778;2023-11-22T14:03:40;100581.06;;;-3.66;75.23
46448;BME280;32145;50.390;30.778;2023-11-22T14:06:24;100579.63;;;-3.70;74.89
46448;BME280;32145;50.390;30.778;2023-11-22T14:09:20;100575.19;;;-3.69;74.75
46448;BME280;32145;50.390;30.778;2023-11-22T14:12:16;100579.03;;;-3.73;74.76
46448;BME280;32145;50.390;30.778;2023-11-22T14:15:01;100588.06;;;-3.76;74.67
46448;BME280;32145;50.390;30.778;2023-11-22T14:17:56;100584.59;;;-3.77;74.82
46448;BME280;32145;50.390;30.778;2023-11-22T14:20:52;100589.38;;;-3.82;74.75
46448;BME280;32145;50.390;30.778;2023-11-22T14:23:46;100590.59;;;-3.86;74.88
46448;BME280;32145;50.390;30.778;2023-11-22T14:26:40;100591.69;;;-3.89;75.20
46448;BME280;32145;50.390;30.778;2023-11-22T14:29:24;100584.13;;;-3.93;75.09
46448;BME280;32145;50.390;30.778;2023-11-22T14:32:20;100591.31;;;-3.95;74.66
46448;BME280;32145;50.390;30.778;2023-11-22T14:35:14;100596.88;;;-3.98;75.08
46448;BME280;32145;50.390;30.778;2023-11-22T14:38:13;100606.75;;;-4.01;74.75
46448;BME280;32145;50.390;30.778;2023-11-22T14:41:09;100609.41;;;-4.01;75.36
46448;BME280;32145;50.390;30.778;2023-11-22T14:44:04;100612.75;;;-3.98;74.93
46448;BME280;32145;50.390;30.778;2023-11-22T14:46:57;100620.00;;;-4.01;75.04
46448;BME280;32145;50.390;30.778;2023-11-22T14:49:52;100617.34;;;-4.01;74.82
46448;BME280;32145;50.390;30.778;2023-11-22T14:52:44;100618.16;;;-4.00;75.21
46448;BME280;32145;50.390;30.778;2023-11-22T14:55:37;100617.34;;;-4.01;74.76
46448;BME280;32145;50.390;30.778;2023-11-22T14:58:33;100623.09;;;-4.07;74.69
46448;BME280;32145;50.390;30.778;2023-11-22T15:01:29;100627.44;;;-4.06;74.60